sensor_id;sensor_type;location;lat;lon;timestamp;P1;durP1;ratioP1;P2;durP2;ratioP2
43419;SDS011;29017;51.514;-0.178;2023-05-16T00:01:13;7.75;;;0.68;;
43419;SDS011;29017;51.514;-0.178;2023-05-16T00:03:42;4.40;;;0.60;;
43419;SDS011;29017;51.514;-0.178;2023-05-16T00:06:09;4.90;;;0.68;;
43419;SDS011;29017;51.514;-0.178;2023-05-16T00:08:37;3.97;;;0.70;;
43419;SDS011;29017;51.514;-0.178;2023-05-16T00:11:05;5.47;;;0.70;;
43419;SDS011;29017;51.514;-0.178;2023-05-16T00:13:32;5.47;;;0.70;;
43419;SDS011;29017;51.514;-0.178;2023-05-16T00:15:59;5.43;;;0.60;;
43419;SDS011;29017;51.514;-0.178;2023-05-16T00:18:28;5.55;;;1.15;;
43419;SDS011;29017;51.514;-0.178;2023-05-16T00:20:56;3.35;;;0.60;;
43419;SDS011;29017;51.514;-0.178;2023-05-16T00:23:23;3.53;;;0.85;;
43419;SDS011;29017;51.514;-0.178;2023-05-16T00:25:51;9.18;;;1.70;;
43419;SDS011;29017;51.514;-0.178;2023-05-16T00:28:18;4.00;;;0.60;;
43419;SDS011;29017;51.514;-0.178;2023-05-16T00:30:46;4.50;;;0.70;;
43419;SDS011;29017;51.514;-0.178;2023-05-16T00:33:13;6.25;;;0.75;;
43419;SDS011;29017;51.514;-0.178;2023-05-16T00:35:41;5.80;;;0.60;;
43419;SDS011;29017;51.514;-0.178;2023-05-16T00:38:09;4.07;;;0.75;;
43419;SDS011;29017;51.514;-0.178;2023-05-16T00:40:36;3.58;;;0.82;;
43419;SDS011;29017;51.514;-0.178;2023-05-16T00:43:04;4.18;;;0.60;;
43419;SDS011;29017;51.514;-0.178;2023-05-16T00:45:32;2.63;;;0.40;;
43419;SDS011;29017;51.514;-0.178;2023-05-16T00:47:59;4.15;;;0.50;;
43419;SDS011;29017;51.514;-0.178;2023-05-16T00:50:27;4.65;;;0.55;;
43419;SDS011;29017;51.514;-0.178;2023-05-16T00:52:54;5.13;;;0.60;;
43419;SDS011;29017;51.514;-0.178;2023-05-16T00:55:22;3.65;;;0.60;;
43419;SDS011;29017;51.514;-0.178;2023-05-16T00:57:50;2.83;;;0.60;;
43419;SDS011;29017;51.514;-0.178;2023-05-16T01:00:18;4.93;;;0.60;;
43419;SDS011;29017;51.514;-0.178;2023-05-16T01:02:46;3.85;;;0.47;;
43419;SDS011;29017;51.514;-0.178;2023-05-16T01:05:14;6.03;;;0.63;;
43419;SDS011;29017;51.514;-0.178;2023-05-16T01:07:41;8.15;;;0.93;;
43419;SDS011;29017;51.514;-0.178;2023-05-16T01:10:09;4.50;;;0.50;;
43419;SDS011;29017;51.514;-0.178;2023-05-16T01:15:13;3.70;;;0.40;;
43419;SDS011;29017;51.514;-0.178;2023-05-16T01:25:30;2.85;;;0.50;;
43419;SDS011;29017;51.514;-0.178;2023-05-16T01:28:01;4.05;;;0.75;;
43419;SDS011;29017;51.514;-0.178;2023-05-16T01:30:31;4.65;;;0.40;;
43419;SDS011;29017;51.514;-0.178;2023-05-16T01:33:02;4.15;;;0.60;;
43419;SDS011;29017;51.514;-0.178;2023-05-16T01:35:30;4.13;;;1.08;;
43419;SDS011;29017;51.514;-0.178;2023-05-16T01:40:37;8.23;;;0.75;;
43419;SDS011;29017;51.514;-0.178;2023-05-16T01:43:15;4.32;;;0.65;;
43419;SDS011;29017;51.514;-0.178;2023-05-16T01:45:47;4.82;;;0.80;;
43419;SDS011;29017;51.514;-0.178;2023-05-16T01:48:21;4.05;;;0.70;;
43419;SDS011;29017;51.514;-0.178;2023-05-16T01:50:54;5.47;;;1.67;;
43419;SDS011;29017;51.514;-0.178;2023-05-16T01:53:25;6.13;;;0.70;;
43419;SDS011;29017;51.514;-0.178;2023-05-16T01:55:55;7.43;;;0.73;;
43419;SDS011;29017;51.514;-0.178;2023-05-16T01:58:25;6.97;;;0.65;;
43419;SDS011;29017;51.514;-0.178;2023-05-16T02:03:29;6.75;;;0.60;;
43419;SDS011;29017;51.514;-0.178;2023-05-16T02:05:57;4.88;;;0.85;;
43419;SDS011;29017;51.514;-0.178;2023-05-16T02:08:26;6.93;;;0.73;;
43419;SDS011;29017;51.514;-0.178;2023-05-16T02:10:55;6.05;;;0.68;;
43419;SDS011;29017;51.514;-0.178;2023-05-16T02:13:22;3.10;;;0.52;;
43419;SDS011;29017;51.514;-0.178;2023-05-16T02:15:50;3.65;;;0.73;;
43419;SDS011;29017;51.514;-0.178;2023-05-16T02:18:18;4.68;;;0.60;;
43419;SDS011;29017;51.514;-0.178;2023-05-16T02:20:46;4.25;;;0.70;;
43419;SDS011;29017;51.514;-0.178;2023-05-16T02:23:13;5.28;;;0.60;;
43419;SDS011;29017;51.514;-0.178;2023-05-16T02:25:41;6.18;;;0.82;;
43419;SDS011;29017;51.514;-0.178;2023-05-16T02:28:08;5.18;;;0.57;;
43419;SDS011;29017;51.514;-0.178;2023-05-16T02:30:35;7.93;;;1.52;;
43419;SDS011;29017;51.514;-0.178;2023-05-16T02:33:03;6.75;;;0.90;;
43419;SDS011;29017;51.514;-0.178;2023-05-16T02:35:30;4.05;;;0.55;;
43419;SDS011;29017;51.514;-0.178;2023-05-16T02:37:58;2.05;;;0.68;;
43419;SDS011;29017;51.514;-0.178;2023-05-16T02:40:25;6.90;;;1.08;;
43419;SDS011;29017;51.514;-0.178;2023-05-16T02:42:52;2.63;;;0.50;;
43419;SDS011;29017;51.514;-0.178;2023-05-16T02:45:20;6.93;;;0.77;;
43419;SDS011;29017;51.514;-0.178;2023-05-16T02:47:47;5.78;;;0.90;;
43419;SDS011;29017;51.514;-0.178;2023-05-16T02:50:15;5.78;;;0.80;;
43419;SDS011;29017;51.514;-0.178;2023-05-16T02:52:42;11.00;;;1.40;;
43419;SDS011;29017;51.514;-0.178;2023-05-16T02:55:10;6.03;;;2.00;;
43419;SDS011;29017;51.514;-0.178;2023-05-16T02:57:41;10.77;;;3.85;;
43419;SDS011;29017;51.514;-0.178;2023-05-16T03:00:09;9.35;;;4.20;;
43419;SDS011;29017;51.514;-0.178;2023-05-16T03:02:37;13.63;;;4.70;;
43419;SDS011;29017;51.514;-0.178;2023-05-16T03:05:05;14.27;;;5.57;;
43419;SDS011;29017;51.514;-0.178;2023-05-16T03:07:33;12.82;;;6.38;;
43419;SDS011;29017;51.514;-0.178;2023-05-16T03:10:00;11.95;;;6.75;;
43419;SDS011;29017;51.514;-0.178;2023-05-16T03:12:27;12.15;;;5.93;;
43419;SDS011;29017;51.514;-0.178;2023-05-16T03:14:55;11.27;;;6.13;;
43419;SDS011;29017;51.514;-0.178;2023-05-16T03:17:22;14.95;;;5.72;;
43419;SDS011;29017;51.514;-0.178;2023-05-16T03:19:50;10.90;;;5.63;;
43419;SDS011;29017;51.514;-0.178;2023-05-16T03:22:18;13.40;;;5.40;;
43419;SDS011;29017;51.514;-0.178;2023-05-16T03:24:45;11.70;;;4.53;;
43419;SDS011;29017;51.514;-0.178;2023-05-16T03:27:12;8.75;;;4.43;;
43419;SDS011;29017;51.514;-0.178;2023-05-16T03:29:40;13.73;;;4.30;;
43419;SDS011;29017;51.514;-0.178;2023-05-16T03:32:09;10.90;;;3.72;;
43419;SDS011;29017;51.514;-0.178;2023-05-16T03:34:37;7.32;;;3.58;;
43419;SDS011;29017;51.514;-0.178;2023-05-16T03:37:04;7.20;;;2.70;;
43419;SDS011;29017;51.514;-0.178;2023-05-16T03:39:32;7.03;;;2.13;;
43419;SDS011;29017;51.514;-0.178;2023-05-16T03:42:00;6.95;;;1.98;;
43419;SDS011;29017;51.514;-0.178;2023-05-16T03:44:27;8.27;;;2.38;;
43419;SDS011;29017;51.514;-0.178;2023-05-16T03:46:54;8.52;;;2.05;;
43419;SDS011;29017;51.514;-0.178;2023-05-16T03:49:25;6.32;;;2.08;;
43419;SDS011;29017;51.514;-0.178;2023-05-16T03:51:54;7.78;;;1.45;;
43419;SDS011;29017;51.514;-0.178;2023-05-16T03:54:21;6.65;;;1.35;;
43419;SDS011;29017;51.514;-0.178;2023-05-16T03:56:48;9.40;;;1.35;;
43419;SDS011;29017;51.514;-0.178;2023-05-16T03:59:16;5.88;;;1.08;;
43419;SDS011;29017;51.514;-0.178;2023-05-16T04:01:43;6.60;;;1.13;;
43419;SDS011;29017;51.514;-0.178;2023-05-16T04:04:11;5.15;;;0.95;;
43419;SDS011;29017;51.514;-0.178;2023-05-16T04:06:38;5.40;;;0.80;;
43419;SDS011;29017;51.514;-0.178;2023-05-16T04:09:06;5.15;;;0.73;;
43419;SDS011;29017;51.514;-0.178;2023-05-16T04:11:33;3.58;;;0.77;;
43419;SDS011;29017;51.514;-0.178;2023-05-16T04:14:01;5.60;;;0.75;;
43419;SDS011;29017;51.514;-0.178;2023-05-16T04:16:28;4.78;;;0.60;;
43419;SDS011;29017;51.514;-0.178;2023-05-16T04:18:56;3.13;;;0.50;;
43419;SDS011;29017;51.514;-0.178;2023-05-16T04:21:25;6.50;;;0.70;;
43419;SDS011;29017;51.514;-0.178;2023-05-16T04:23:52;7.65;;;0.80;;
43419;SDS011;29017;51.514;-0.178;2023-05-16T04:26:19;6.90;;;0.60;;
43419;SDS011;29017;51.514;-0.178;2023-05-16T04:28:48;3.20;;;0.50;;
43419;SDS011;29017;51.514;-0.178;2023-05-16T04:31:16;3.65;;;0.60;;
43419;SDS011;29017;51.514;-0.178;2023-05-16T04:33:43;7.40;;;0.60;;
43419;SDS011;29017;51.514;-0.178;2023-05-16T04:36:11;8.25;;;0.47;;
43419;SDS011;29017;51.514;-0.178;2023-05-16T04:38:39;4.78;;;0.52;;
43419;SDS011;29017;51.514;-0.178;2023-05-16T04:41:07;6.10;;;0.63;;
43419;SDS011;29017;51.514;-0.178;2023-05-16T04:43:34;3.20;;;0.40;;
43419;SDS011;29017;51.514;-0.178;2023-05-16T04:46:02;2.80;;;0.60;;
43419;SDS011;29017;51.514;-0.178;2023-05-16T04:48:30;4.60;;;0.55;;
43419;SDS011;29017;51.514;-0.178;2023-05-16T04:50:57;8.55;;;0.65;;
43419;SDS011;29017;51.514;-0.178;2023-05-16T04:53:25;7.65;;;0.50;;
43419;SDS011;29017;51.514;-0.178;2023-05-16T04:55:53;4.43;;;0.52;;
43419;SDS011;29017;51.514;-0.178;2023-05-16T04:58:20;5.15;;;1.02;;
43419;SDS011;29017;51.514;-0.178;2023-05-16T05:00:50;6.82;;;0.50;;
43419;SDS011;29017;51.514;-0.178;2023-05-16T05:03:18;6.32;;;0.50;;
43419;SDS011;29017;51.514;-0.178;2023-05-16T05:05:45;4.47;;;0.60;;
43419;SDS011;29017;51.514;-0.178;2023-05-16T05:08:13;5.88;;;0.57;;
43419;SDS011;29017;51.514;-0.178;2023-05-16T05:10:41;6.15;;;0.60;;
43419;SDS011;29017;51.514;-0.178;2023-05-16T05:13:09;5.90;;;1.38;;
43419;SDS011;29017;51.514;-0.178;2023-05-16T05:15:37;5.13;;;0.60;;
43419;SDS011;29017;51.514;-0.178;2023-05-16T05:18:04;5.45;;;0.60;;
43419;SDS011;29017;51.514;-0.178;2023-05-16T05:20:32;5.50;;;0.35;;
43419;SDS011;29017;51.514;-0.178;2023-05-16T05:22:59;7.20;;;0.60;;
43419;SDS011;29017;51.514;-0.178;2023-05-16T05:25:27;5.78;;;0.40;;
43419;SDS011;29017;51.514;-0.178;2023-05-16T05:27:54;8.88;;;0.57;;
43419;SDS011;29017;51.514;-0.178;2023-05-16T05:30:22;6.95;;;0.43;;
43419;SDS011;29017;51.514;-0.178;2023-05-16T05:32:49;9.23;;;0.55;;
43419;SDS011;29017;51.514;-0.178;2023-05-16T05:35:17;10.88;;;1.08;;
43419;SDS011;29017;51.514;-0.178;2023-05-16T05:37:44;4.72;;;0.50;;
43419;SDS011;29017;51.514;-0.178;2023-05-16T05:40:12;5.10;;;1.10;;
43419;SDS011;29017;51.514;-0.178;2023-05-16T05:42:39;7.75;;;0.60;;
43419;SDS011;29017;51.514;-0.178;2023-05-16T05:45:10;7.40;;;0.55;;
43419;SDS011;29017;51.514;-0.178;2023-05-16T05:47:37;5.10;;;0.40;;
43419;SDS011;29017;51.514;-0.178;2023-05-16T05:50:05;5.05;;;0.60;;
43419;SDS011;29017;51.514;-0.178;2023-05-16T05:52:34;6.30;;;0.52;;
43419;SDS011;29017;51.514;-0.178;2023-05-16T05:55:01;7.55;;;0.50;;
43419;SDS011;29017;51.514;-0.178;2023-05-16T05:57:28;9.77;;;0.60;;
43419;SDS011;29017;51.514;-0.178;2023-05-16T05:59:56;10.20;;;1.10;;
43419;SDS011;29017;51.514;-0.178;2023-05-16T06:02:23;11.77;;;0.57;;
43419;SDS011;29017;51.514;-0.178;2023-05-16T06:04:51;5.93;;;0.73;;
43419;SDS011;29017;51.514;-0.178;2023-05-16T06:07:19;9.65;;;0.40;;
43419;SDS011;29017;51.514;-0.178;2023-05-16T06:09:46;6.57;;;0.60;;
43419;SDS011;29017;51.514;-0.178;2023-05-16T06:12:14;6.20;;;0.70;;
43419;SDS011;29017;51.514;-0.178;2023-05-16T06:14:41;4.60;;;0.60;;
43419;SDS011;29017;51.514;-0.178;2023-05-16T06:17:08;7.35;;;0.60;;
43419;SDS011;29017;51.514;-0.178;2023-05-16T06:19:36;4.85;;;0.47;;
43419;SDS011;29017;51.514;-0.178;2023-05-16T06:22:03;8.18;;;0.60;;
43419;SDS011;29017;51.514;-0.178;2023-05-16T06:24:31;7.53;;;0.60;;
43419;SDS011;29017;51.514;-0.178;2023-05-16T06:26:59;4.70;;;0.40;;
43419;SDS011;29017;51.514;-0.178;2023-05-16T06:29:26;12.15;;;0.57;;
43419;SDS011;29017;51.514;-0.178;2023-05-16T06:31:54;6.35;;;1.10;;
43419;SDS011;29017;51.514;-0.178;2023-05-16T06:34:21;14.05;;;1.05;;
43419;SDS011;29017;51.514;-0.178;2023-05-16T06:36:53;6.05;;;0.50;;
43419;SDS011;29017;51.514;-0.178;2023-05-16T06:39:21;7.90;;;0.57;;
43419;SDS011;29017;51.514;-0.178;2023-05-16T06:41:48;5.00;;;0.43;;
43419;SDS011;29017;51.514;-0.178;2023-05-16T06:44:16;8.30;;;0.50;;
43419;SDS011;29017;51.514;-0.178;2023-05-16T06:46:44;4.32;;;0.40;;
43419;SDS011;29017;51.514;-0.178;2023-05-16T06:49:12;5.70;;;0.60;;
43419;SDS011;29017;51.514;-0.178;2023-05-16T06:51:39;6.85;;;0.50;;
43419;SDS011;29017;51.514;-0.178;2023-05-16T06:54:07;9.63;;;0.68;;
43419;SDS011;29017;51.514;-0.178;2023-05-16T06:56:34;3.05;;;0.50;;
43419;SDS011;29017;51.514;-0.178;2023-05-16T06:59:02;6.45;;;0.85;;
43419;SDS011;29017;51.514;-0.178;2023-05-16T07:01:30;4.60;;;0.40;;
43419;SDS011;29017;51.514;-0.178;2023-05-16T07:03:57;5.07;;;0.50;;
43419;SDS011;29017;51.514;-0.178;2023-05-16T07:06:25;2.20;;;0.38;;
43419;SDS011;29017;51.514;-0.178;2023-05-16T07:08:53;2.92;;;0.40;;
43419;SDS011;29017;51.514;-0.178;2023-05-16T07:11:21;10.27;;;0.45;;
43419;SDS011;29017;51.514;-0.178;2023-05-16T07:13:48;6.80;;;0.52;;
43419;SDS011;29017;51.514;-0.178;2023-05-16T07:16:16;6.22;;;0.50;;
43419;SDS011;29017;51.514;-0.178;2023-05-16T07:18:44;8.20;;;0.60;;
43419;SDS011;29017;51.514;-0.178;2023-05-16T07:21:19;6.55;;;0.40;;
43419;SDS011;29017;51.514;-0.178;2023-05-16T07:23:49;2.70;;;0.43;;
43419;SDS011;29017;51.514;-0.178;2023-05-16T07:26:17;6.00;;;0.45;;
43419;SDS011;29017;51.514;-0.178;2023-05-16T07:28:44;10.48;;;0.43;;
43419;SDS011;29017;51.514;-0.178;2023-05-16T07:31:16;4.13;;;0.35;;
43419;SDS011;29017;51.514;-0.178;2023-05-16T07:33:44;5.73;;;0.50;;
43419;SDS011;29017;51.514;-0.178;2023-05-16T07:36:28;9.00;;;0.40;;
43419;SDS011;29017;51.514;-0.178;2023-05-16T07:39:46;8.00;;;0.30;;
43419;SDS011;29017;51.514;-0.178;2023-05-16T07:43:19;8.63;;;0.50;;
43419;SDS011;29017;51.514;-0.178;2023-05-16T07:46:27;8.30;;;0.60;;
43419;SDS011;29017;51.514;-0.178;2023-05-16T07:49:47;8.18;;;0.55;;
43419;SDS011;29017;51.514;-0.178;2023-05-16T07:52:36;6.13;;;0.85;;
43419;SDS011;29017;51.514;-0.178;2023-05-16T07:55:18;4.75;;;0.50;;
43419;SDS011;29017;51.514;-0.178;2023-05-16T07:57:45;4.10;;;0.28;;
43419;SDS011;29017;51.514;-0.178;2023-05-16T08:00:14;5.95;;;0.40;;
43419;SDS011;29017;51.514;-0.178;2023-05-16T08:02:42;7.35;;;0.40;;
43419;SDS011;29017;51.514;-0.178;2023-05-16T08:05:11;6.43;;;0.38;;
43419;SDS011;29017;51.514;-0.178;2023-05-16T08:07:39;6.45;;;0.43;;
43419;SDS011;29017;51.514;-0.178;2023-05-16T08:10:07;5.40;;;0.40;;
43419;SDS011;29017;51.514;-0.178;2023-05-16T08:12:38;6.28;;;0.40;;
43419;SDS011;29017;51.514;-0.178;2023-05-16T08:15:07;7.13;;;0.90;;
43419;SDS011;29017;51.514;-0.178;2023-05-16T08:17:35;3.90;;;0.65;;
43419;SDS011;29017;51.514;-0.178;2023-05-16T08:20:04;7.25;;;2.17;;
43419;SDS011;29017;51.514;-0.178;2023-05-16T08:22:33;9.43;;;0.80;;
43419;SDS011;29017;51.514;-0.178;2023-05-16T08:25:01;4.25;;;0.43;;
43419;SDS011;29017;51.514;-0.178;2023-05-16T08:27:29;5.15;;;0.38;;
43419;SDS011;29017;51.514;-0.178;2023-05-16T08:29:56;3.70;;;0.45;;
43419;SDS011;29017;51.514;-0.178;2023-05-16T08:32:24;3.95;;;0.75;;
43419;SDS011;29017;51.514;-0.178;2023-05-16T08:34:52;4.93;;;0.30;;
43419;SDS011;29017;51.514;-0.178;2023-05-16T08:37:20;3.58;;;0.30;;
43419;SDS011;29017;51.514;-0.178;2023-05-16T08:39:48;4.65;;;0.40;;
43419;SDS011;29017;51.514;-0.178;2023-05-16T08:42:16;2.58;;;0.30;;
43419;SDS011;29017;51.514;-0.178;2023-05-16T08:44:43;4.97;;;0.30;;
43419;SDS011;29017;51.514;-0.178;2023-05-16T08:47:13;2.55;;;0.30;;
43419;SDS011;29017;51.514;-0.178;2023-05-16T08:49:47;5.20;;;0.35;;
43419;SDS011;29017;51.514;-0.178;2023-05-16T08:52:18;6.88;;;0.68;;
43419;SDS011;29017;51.514;-0.178;2023-05-16T08:54:49;6.65;;;0.57;;
43419;SDS011;29017;51.514;-0.178;2023-05-16T08:57:36;3.85;;;0.30;;
43419;SDS011;29017;51.514;-0.178;2023-05-16T09:00:06;2.63;;;0.30;;
43419;SDS011;29017;51.514;-0.178;2023-05-16T09:02:39;7.50;;;0.38;;
43419;SDS011;29017;51.514;-0.178;2023-05-16T09:05:09;3.80;;;0.30;;
43419;SDS011;29017;51.514;-0.178;2023-05-16T09:07:39;6.40;;;0.45;;
43419;SDS011;29017;51.514;-0.178;2023-05-16T09:10:08;5.72;;;0.20;;
43419;SDS011;29017;51.514;-0.178;2023-05-16T09:12:37;4.57;;;0.35;;
43419;SDS011;29017;51.514;-0.178;2023-05-16T09:15:07;7.53;;;0.43;;
43419;SDS011;29017;51.514;-0.178;2023-05-16T09:17:38;4.70;;;0.30;;
43419;SDS011;29017;51.514;-0.178;2023-05-16T09:20:09;5.75;;;0.30;;
43419;SDS011;29017;51.514;-0.178;2023-05-16T09:22:38;7.80;;;0.50;;
43419;SDS011;29017;51.514;-0.178;2023-05-16T09:25:15;6.72;;;1.13;;
43419;SDS011;29017;51.514;-0.178;2023-05-16T09:27:55;5.45;;;0.38;;
43419;SDS011;29017;51.514;-0.178;2023-05-16T09:32:57;3.97;;;0.30;;
43419;SDS011;29017;51.514;-0.178;2023-05-16T09:35:31;3.00;;;0.30;;
43419;SDS011;29017;51.514;-0.178;2023-05-16T09:38:16;7.38;;;0.30;;
43419;SDS011;29017;51.514;-0.178;2023-05-16T09:40:44;5.70;;;0.30;;
43419;SDS011;29017;51.514;-0.178;2023-05-16T09:43:14;3.47;;;0.68;;
43419;SDS011;29017;51.514;-0.178;2023-05-16T09:45:46;8.15;;;0.90;;
43419;SDS011;29017;51.514;-0.178;2023-05-16T09:48:15;6.57;;;0.30;;
43419;SDS011;29017;51.514;-0.178;2023-05-16T10:00:58;5.60;;;0.40;;
43419;SDS011;29017;51.514;-0.178;2023-05-16T10:03:26;2.20;;;0.30;;
43419;SDS011;29017;51.514;-0.178;2023-05-16T10:05:55;5.07;;;0.60;;
43419;SDS011;29017;51.514;-0.178;2023-05-16T10:08:29;5.65;;;0.50;;
43419;SDS011;29017;51.514;-0.178;2023-05-16T10:10:58;2.42;;;0.30;;
43419;SDS011;29017;51.514;-0.178;2023-05-16T10:13:28;4.82;;;0.25;;
43419;SDS011;29017;51.514;-0.178;2023-05-16T10:16:05;2.35;;;0.20;;
43419;SDS011;29017;51.514;-0.178;2023-05-16T10:18:38;3.33;;;0.30;;
43419;SDS011;29017;51.514;-0.178;2023-05-16T10:21:09;5.03;;;0.20;;
43419;SDS011;29017;51.514;-0.178;2023-05-16T10:23:40;1.98;;;0.22;;
43419;SDS011;29017;51.514;-0.178;2023-05-16T10:26:10;3.28;;;0.20;;
43419;SDS011;29017;51.514;-0.178;2023-05-16T10:28:40;5.97;;;0.20;;
43419;SDS011;29017;51.514;-0.178;2023-05-16T10:31:09;7.25;;;0.50;;
43419;SDS011;29017;51.514;-0.178;2023-05-16T10:33:37;3.63;;;0.20;;
43419;SDS011;29017;51.514;-0.178;2023-05-16T10:36:07;2.88;;;0.20;;
43419;SDS011;29017;51.514;-0.178;2023-05-16T10:38:38;1.38;;;0.20;;
43419;SDS011;29017;51.514;-0.178;2023-05-16T10:41:08;4.32;;;0.20;;
43419;SDS011;29017;51.514;-0.178;2023-05-16T10:43:37;3.20;;;0.20;;
43419;SDS011;29017;51.514;-0.178;2023-05-16T10:46:11;5.50;;;0.40;;
43419;SDS011;29017;51.514;-0.178;2023-05-16T10:48:40;4.22;;;0.20;;
43419;SDS011;29017;51.514;-0.178;2023-05-16T10:53:42;1.60;;;0.20;;
43419;SDS011;29017;51.514;-0.178;2023-05-16T10:56:10;6.00;;;0.28;;
43419;SDS011;29017;51.514;-0.178;2023-05-16T10:58:39;5.35;;;0.25;;
43419;SDS011;29017;51.514;-0.178;2023-05-16T11:06:19;4.47;;;0.20;;
43419;SDS011;29017;51.514;-0.178;2023-05-16T11:13:57;3.20;;;0.20;;
43419;SDS011;29017;51.514;-0.178;2023-05-16T11:16:29;2.90;;;0.30;;
43419;SDS011;29017;51.514;-0.178;2023-05-16T11:26:38;1.77;;;0.10;;
43419;SDS011;29017;51.514;-0.178;2023-05-16T11:29:06;3.08;;;0.30;;
43419;SDS011;29017;51.514;-0.178;2023-05-16T11:31:34;3.42;;;0.22;;
43419;SDS011;29017;51.514;-0.178;2023-05-16T11:34:02;2.33;;;0.20;;
43419;SDS011;29017;51.514;-0.178;2023-05-16T11:36:29;6.65;;;0.10;;
43419;SDS011;29017;51.514;-0.178;2023-05-16T11:39:04;2.45;;;0.20;;
43419;SDS011;29017;51.514;-0.178;2023-05-16T11:41:35;3.63;;;0.22;;
43419;SDS011;29017;51.514;-0.178;2023-05-16T11:44:02;3.67;;;0.20;;
43419;SDS011;29017;51.514;-0.178;2023-05-16T11:46:32;2.03;;;0.20;;
43419;SDS011;29017;51.514;-0.178;2023-05-16T11:49:00;3.78;;;0.50;;
43419;SDS011;29017;51.514;-0.178;2023-05-16T11:51:30;3.10;;;0.20;;
43419;SDS011;29017;51.514;-0.178;2023-05-16T11:53:57;4.82;;;0.25;;
43419;SDS011;29017;51.514;-0.178;2023-05-16T11:56:25;3.28;;;0.70;;
43419;SDS011;29017;51.514;-0.178;2023-05-16T11:58:53;3.88;;;0.30;;
43419;SDS011;29017;51.514;-0.178;2023-05-16T12:01:20;5.75;;;0.50;;
43419;SDS011;29017;51.514;-0.178;2023-05-16T12:06:21;13.10;;;0.65;;
43419;SDS011;29017;51.514;-0.178;2023-05-16T12:08:49;3.65;;;0.55;;
43419;SDS011;29017;51.514;-0.178;2023-05-16T12:11:17;10.10;;;0.40;;
43419;SDS011;29017;51.514;-0.178;2023-05-16T12:13:44;4.50;;;0.20;;
43419;SDS011;29017;51.514;-0.178;2023-05-16T12:16:12;2.92;;;0.20;;
43419;SDS011;29017;51.514;-0.178;2023-05-16T12:18:40;3.38;;;0.30;;
43419;SDS011;29017;51.514;-0.178;2023-05-16T12:21:09;2.10;;;0.20;;
43419;SDS011;29017;51.514;-0.178;2023-05-16T12:23:37;6.65;;;0.30;;
43419;SDS011;29017;51.514;-0.178;2023-05-16T12:26:05;2.88;;;0.28;;
43419;SDS011;29017;51.514;-0.178;2023-05-16T12:28:34;3.72;;;0.25;;
43419;SDS011;29017;51.514;-0.178;2023-05-16T12:31:02;3.95;;;0.47;;
43419;SDS011;29017;51.514;-0.178;2023-05-16T12:33:29;2.97;;;0.20;;
43419;SDS011;29017;51.514;-0.178;2023-05-16T12:35:56;3.25;;;0.30;;
43419;SDS011;29017;51.514;-0.178;2023-05-16T12:38:27;3.00;;;1.10;;
43419;SDS011;29017;51.514;-0.178;2023-05-16T12:40:57;6.22;;;0.77;;
43419;SDS011;29017;51.514;-0.178;2023-05-16T12:43:24;13.20;;;0.30;;
43419;SDS011;29017;51.514;-0.178;2023-05-16T12:45:52;3.78;;;0.25;;
43419;SDS011;29017;51.514;-0.178;2023-05-16T12:48:22;2.47;;;0.30;;
43419;SDS011;29017;51.514;-0.178;2023-05-16T12:50:50;16.92;;;0.82;;
43419;SDS011;29017;51.514;-0.178;2023-05-16T12:53:17;21.58;;;0.88;;
43419;SDS011;29017;51.514;-0.178;2023-05-16T12:55:45;8.45;;;0.40;;
43419;SDS011;29017;51.514;-0.178;2023-05-16T12:58:13;18.30;;;0.50;;
43419;SDS011;29017;51.514;-0.178;2023-05-16T13:00:42;5.95;;;0.32;;
43419;SDS011;29017;51.514;-0.178;2023-05-16T13:03:09;2.65;;;0.20;;
43419;SDS011;29017;51.514;-0.178;2023-05-16T13:05:37;3.95;;;0.28;;
43419;SDS011;29017;51.514;-0.178;2023-05-16T13:08:05;8.57;;;0.30;;
43419;SDS011;29017;51.514;-0.178;2023-05-16T13:10:33;3.63;;;0.30;;
43419;SDS011;29017;51.514;-0.178;2023-05-16T13:13:00;5.60;;;0.50;;
43419;SDS011;29017;51.514;-0.178;2023-05-16T13:15:27;4.72;;;0.50;;
43419;SDS011;29017;51.514;-0.178;2023-05-16T13:17:55;5.43;;;0.40;;
43419;SDS011;29017;51.514;-0.178;2023-05-16T13:20:22;5.72;;;0.30;;
43419;SDS011;29017;51.514;-0.178;2023-05-16T13:22:50;10.73;;;0.40;;
43419;SDS011;29017;51.514;-0.178;2023-05-16T13:25:17;3.42;;;0.30;;
43419;SDS011;29017;51.514;-0.178;2023-05-16T13:27:44;3.45;;;0.40;;
43419;SDS011;29017;51.514;-0.178;2023-05-16T13:30:12;3.53;;;0.35;;
43419;SDS011;29017;51.514;-0.178;2023-05-16T13:32:39;6.30;;;0.50;;
43419;SDS011;29017;51.514;-0.178;2023-05-16T13:35:07;2.75;;;0.28;;
43419;SDS011;29017;51.514;-0.178;2023-05-16T13:37:36;4.07;;;0.50;;
43419;SDS011;29017;51.514;-0.178;2023-05-16T13:40:03;6.10;;;0.40;;
43419;SDS011;29017;51.514;-0.178;2023-05-16T13:42:34;5.13;;;0.47;;
43419;SDS011;29017;51.514;-0.178;2023-05-16T13:45:03;3.92;;;0.60;;
43419;SDS011;29017;51.514;-0.178;2023-05-16T13:47:34;4.88;;;0.45;;
43419;SDS011;29017;51.514;-0.178;2023-05-16T13:50:02;4.63;;;0.50;;
43419;SDS011;29017;51.514;-0.178;2023-05-16T13:52:33;5.03;;;0.55;;
43419;SDS011;29017;51.514;-0.178;2023-05-16T13:55:03;4.20;;;0.60;;
43419;SDS011;29017;51.514;-0.178;2023-05-16T13:57:31;5.13;;;0.50;;
43419;SDS011;29017;51.514;-0.178;2023-05-16T13:59:59;4.43;;;0.40;;
43419;SDS011;29017;51.514;-0.178;2023-05-16T14:02:46;4.60;;;1.67;;
43419;SDS011;29017;51.514;-0.178;2023-05-16T14:05:14;4.65;;;0.60;;
43419;SDS011;29017;51.514;-0.178;2023-05-16T14:07:41;5.07;;;0.70;;
43419;SDS011;29017;51.514;-0.178;2023-05-16T14:10:12;4.63;;;0.50;;
43419;SDS011;29017;51.514;-0.178;2023-05-16T14:12:39;3.03;;;0.70;;
43419;SDS011;29017;51.514;-0.178;2023-05-16T14:15:07;4.32;;;0.85;;
43419;SDS011;29017;51.514;-0.178;2023-05-16T14:17:35;4.82;;;0.70;;
43419;SDS011;29017;51.514;-0.178;2023-05-16T14:20:03;7.10;;;0.90;;
43419;SDS011;29017;51.514;-0.178;2023-05-16T14:22:35;4.35;;;0.88;;
43419;SDS011;29017;51.514;-0.178;2023-05-16T14:25:05;4.53;;;0.70;;
43419;SDS011;29017;51.514;-0.178;2023-05-16T14:27:33;4.43;;;0.82;;
43419;SDS011;29017;51.514;-0.178;2023-05-16T14:30:00;4.38;;;0.75;;
43419;SDS011;29017;51.514;-0.178;2023-05-16T14:32:27;4.78;;;1.00;;
43419;SDS011;29017;51.514;-0.178;2023-05-16T14:34:55;4.75;;;1.05;;
43419;SDS011;29017;51.514;-0.178;2023-05-16T14:37:22;4.18;;;1.10;;
43419;SDS011;29017;51.514;-0.178;2023-05-16T14:39:49;6.72;;;1.20;;
43419;SDS011;29017;51.514;-0.178;2023-05-16T14:42:18;5.20;;;1.00;;
43419;SDS011;29017;51.514;-0.178;2023-05-16T14:44:45;3.85;;;1.00;;
43419;SDS011;29017;51.514;-0.178;2023-05-16T14:47:13;5.45;;;1.30;;
43419;SDS011;29017;51.514;-0.178;2023-05-16T14:49:40;5.75;;;1.65;;
43419;SDS011;29017;51.514;-0.178;2023-05-16T14:52:07;3.10;;;0.95;;
43419;SDS011;29017;51.514;-0.178;2023-05-16T14:54:35;5.22;;;1.40;;
43419;SDS011;29017;51.514;-0.178;2023-05-16T14:57:02;6.80;;;1.30;;
43419;SDS011;29017;51.514;-0.178;2023-05-16T14:59:30;4.13;;;1.20;;
43419;SDS011;29017;51.514;-0.178;2023-05-16T15:01:57;4.00;;;1.17;;
43419;SDS011;29017;51.514;-0.178;2023-05-16T15:04:26;5.45;;;1.40;;
43419;SDS011;29017;51.514;-0.178;2023-05-16T15:06:54;3.42;;;1.25;;
43419;SDS011;29017;51.514;-0.178;2023-05-16T15:09:21;4.15;;;1.88;;
43419;SDS011;29017;51.514;-0.178;2023-05-16T15:11:48;6.45;;;1.40;;
43419;SDS011;29017;51.514;-0.178;2023-05-16T15:14:16;6.68;;;1.35;;
43419;SDS011;29017;51.514;-0.178;2023-05-16T15:16:44;4.90;;;1.60;;
43419;SDS011;29017;51.514;-0.178;2023-05-16T15:19:13;4.63;;;1.83;;
43419;SDS011;29017;51.514;-0.178;2023-05-16T15:21:40;9.18;;;1.67;;
43419;SDS011;29017;51.514;-0.178;2023-05-16T15:24:08;8.02;;;1.85;;
43419;SDS011;29017;51.514;-0.178;2023-05-16T15:26:37;9.10;;;2.30;;
43419;SDS011;29017;51.514;-0.178;2023-05-16T15:29:05;7.78;;;1.88;;
43419;SDS011;29017;51.514;-0.178;2023-05-16T15:31:32;5.53;;;2.03;;
43419;SDS011;29017;51.514;-0.178;2023-05-16T15:34:00;6.95;;;1.95;;
43419;SDS011;29017;51.514;-0.178;2023-05-16T15:36:27;6.55;;;1.80;;